createdAt,value
2022-12-28T00:01:52.701Z,95411.63
2022-12-28T00:04:20.537Z,95362.78
2022-12-28T00:06:50.563Z,95349.09
2022-12-28T00:09:18.846Z,95366.03
2022-12-28T00:11:48.295Z,95393.06
2022-12-28T00:14:16.104Z,95417.50
2022-12-28T00:16:44.309Z,95422.38
2022-12-28T00:19:13.873Z,95387.84
2022-12-28T00:21:41.710Z,95395.66
2022-12-28T00:24:10.204Z,95387.84
2022-12-28T00:26:38.023Z,95405.09
2022-12-28T00:29:07.237Z,95363.44
2022-12-28T00:31:35.376Z,95384.59
2022-12-28T00:34:03.299Z,95338.03
2022-12-28T00:37:11.289Z,95360.81
2022-12-28T00:39:20.212Z,95369.28
2022-12-28T00:41:48.495Z,95340.66
2022-12-28T00:44:17.725Z,95336.25
2022-12-28T00:46:45.687Z,95306.75
2022-12-28T00:49:13.709Z,95338.03
2022-12-28T00:51:41.611Z,95333.16
2022-12-28T00:54:09.491Z,95311.81
2022-12-28T00:56:37.271Z,95278.13
2022-12-28T00:59:05.082Z,95288.19
2022-12-28T01:01:34.464Z,95327.13
2022-12-28T01:04:02.272Z,95319.44
2022-12-28T01:06:30.592Z,95338.84
2022-12-28T01:08:58.497Z,95334.63
2022-12-28T01:11:28.100Z,95322.38
2022-12-28T01:13:58.156Z,95272.09
2022-12-28T01:16:27.824Z,95245.91
2022-12-28T01:18:58.987Z,95227.34
2022-12-28T01:21:29.259Z,95230.63
2022-12-28T01:23:58.825Z,95268.69
2022-12-28T01:26:27.699Z,95308.38
2022-12-28T01:28:55.580Z,95352.38
2022-12-28T01:31:23.431Z,95353.19
2022-12-28T01:33:51.176Z,95349.91
2022-12-28T01:36:22.464Z,95329.56
2022-12-28T01:38:54.053Z,95341.28
2022-12-28T01:41:22.565Z,95334.47
2022-12-28T01:44:23.870Z,95321.75
2022-12-28T01:46:54.266Z,95283.16
2022-12-28T01:49:28.683Z,95245.09
2022-12-28T01:52:03.441Z,95250.78
2022-12-28T01:54:35.114Z,95296.66
2022-12-28T01:57:04.129Z,95260.38
2022-12-28T01:59:34.774Z,95231.75
2022-12-28T02:02:02.799Z,95212.69
2022-12-28T02:04:30.894Z,95242.66
2022-12-28T02:07:00.046Z,95271.28
2022-12-28T02:09:34.307Z,95303.34
2022-12-28T02:12:02.278Z,95299.91
2022-12-28T02:14:31.441Z,95270.31
2022-12-28T02:16:59.541Z,95291.47
2022-12-28T02:19:36.577Z,95278.94
2022-12-28T02:22:33.730Z,95300.72
2022-12-28T02:25:16.039Z,95325.50
2022-12-28T02:27:58.485Z,95267.06
2022-12-28T02:30:27.718Z,95237.44
2022-12-28T02:33:01.805Z,95248.34
2022-12-28T02:35:39.589Z,95237.44
2022-12-28T02:38:15.760Z,95164.88
2022-12-28T02:40:46.962Z,95087.31
2022-12-28T02:43:15.428Z,95024.75
2022-12-28T02:46:03.436Z,94958.28
2022-12-28T02:48:58.169Z,94938.97
2022-12-28T02:51:54.778Z,94921.44
2022-12-28T02:54:50.524Z,94869.94
2022-12-28T02:57:35.756Z,94825.94
2022-12-28T03:00:07.950Z,94825.94
2022-12-28T03:02:51.059Z,94807.44
2022-12-28T03:05:46.607Z,94770.47
2022-12-28T03:08:21.530Z,94743.69
2022-12-28T03:10:57.305Z,94743.84
2022-12-28T03:13:47.049Z,94815.88
2022-12-28T03:16:21.542Z,94827.56
2022-12-28T03:19:13.507Z,94812.66
2022-12-28T03:22:00.923Z,94826.13
2022-12-28T03:24:50.031Z,94782.13
2022-12-28T03:27:37.388Z,94732.00
2022-12-28T03:30:26.991Z,94657.56
2022-12-28T03:32:56.000Z,94618.97
2022-12-28T03:35:40.138Z,94598.53
2022-12-28T03:38:12.268Z,94605.34
2022-12-28T03:40:48.607Z,94637.44
2022-12-28T03:43:39.707Z,94658.69
2022-12-28T03:46:14.528Z,94654.31
2022-12-28T03:48:44.116Z,94632.25
2022-12-28T03:51:17.232Z,94600.50
2022-12-28T03:53:47.719Z,94595.66
2022-12-28T03:56:17.071Z,94566.00
2022-12-28T03:58:45.053Z,94613.31
2022-12-28T04:01:13.784Z,94657.56
2022-12-28T04:03:41.939Z,94658.56
2022-12-28T04:06:12.901Z,94622.22
2022-12-28T04:08:42.064Z,94605.69
2022-12-28T04:11:10.643Z,94553.19
2022-12-28T04:13:38.433Z,94512.19
2022-12-28T04:16:10.973Z,94486.09
2022-12-28T04:18:39.399Z,94459.22
2022-12-28T04:21:07.560Z,94483.50
2022-12-28T04:23:35.333Z,94478.03
2022-12-28T04:26:07.076Z,94473.47
2022-12-28T04:28:35.652Z,94470.25
2022-12-28T04:31:04.737Z,94493.56
2022-12-28T04:33:34.378Z,94510.41
2022-12-28T04:36:06.751Z,94539.88
2022-12-28T04:38:34.727Z,94634.50
2022-12-28T04:41:04.884Z,94670.06
2022-12-28T04:43:34.022Z,94682.69
2022-12-28T04:46:03.778Z,94640.03
2022-12-28T04:48:31.821Z,94616.03
2022-12-28T04:51:00.185Z,94604.06
2022-12-28T04:53:28.102Z,94656.59
2022-12-28T04:55:58.407Z,94605.19
2022-12-28T04:58:27.570Z,94600.50
2022-12-28T05:00:55.525Z,94578.47
2022-12-28T05:03:23.397Z,94561.28
2022-12-28T05:05:51.525Z,94560.00
2022-12-28T05:08:19.328Z,94554.81
2022-12-28T05:10:47.183Z,94548.00
2022-12-28T05:13:15.077Z,94598.22
2022-12-28T05:15:44.312Z,94634.69
2022-12-28T05:18:12.065Z,94618.63
2022-12-28T05:20:39.850Z,94621.88
2022-12-28T05:23:07.567Z,94604.38
2022-12-28T05:25:35.401Z,94595.94
2022-12-28T05:28:03.309Z,94537.94
2022-12-28T05:30:31.151Z,94482.53
2022-12-28T05:33:00.263Z,94396.25
2022-12-28T05:35:28.176Z,94304.47
2022-12-28T05:37:55.937Z,94271.00
2022-12-28T05:40:23.705Z,94257.56
2022-12-28T05:42:51.884Z,94272.78
2022-12-28T05:45:20.046Z,94244.31
2022-12-28T05:47:48.078Z,94173.81
2022-12-28T05:50:17.608Z,94113.38
2022-12-28T05:52:45.721Z,94079.75
2022-12-28T05:55:13.628Z,94079.91
2022-12-28T05:57:41.433Z,94071.69
2022-12-28T06:00:10.227Z,94103.34
2022-12-28T06:02:38.339Z,94100.59
2022-12-28T06:05:07.259Z,94088.94
2022-12-28T06:07:36.351Z,94062.94
2022-12-28T06:10:04.417Z,94022.91
2022-12-28T06:12:32.331Z,93974.44
2022-12-28T06:15:00.284Z,93953.28
2022-12-28T06:17:28.218Z,93964.09
2022-12-28T06:19:55.961Z,93938.13
2022-12-28T06:22:23.775Z,93905.69
2022-12-28T06:24:52.971Z,93853.72
2022-12-28T06:27:20.869Z,93813.75
2022-12-28T06:29:48.609Z,93807.59
2022-12-28T06:32:16.315Z,93820.34
2022-12-28T06:34:44.444Z,93836.16
2022-12-28T06:37:12.510Z,93893.13
2022-12-28T06:39:40.229Z,93902.47
2022-12-28T06:42:09.437Z,93942.50
2022-12-28T06:44:44.171Z,93899.91
2022-12-28T06:47:12.690Z,93882.91
2022-12-28T06:49:40.431Z,93847.28
2022-12-28T06:52:08.383Z,93829.53
2022-12-28T06:54:36.179Z,93853.72
2022-12-28T06:57:04.097Z,93894.72
2022-12-28T06:59:33.274Z,93952.31
2022-12-28T07:02:01.338Z,93982.84
2022-12-28T07:04:29.399Z,93997.72
2022-12-28T07:06:57.210Z,94026.13
2022-12-28T07:09:25.063Z,94012.91
2022-12-28T07:11:52.911Z,93994.94
2022-12-28T07:14:20.874Z,93955.06
2022-12-28T07:16:50.317Z,93907.13
2022-12-28T07:19:18.114Z,93904.91
2022-12-28T07:21:45.930Z,93904.53
2022-12-28T07:24:13.806Z,93905.69
2022-12-28T07:26:41.622Z,93897.13
2022-12-28T07:29:11.155Z,93864.41
2022-12-28T07:31:45.482Z,93852.63
2022-12-28T07:34:16.112Z,93843.28
2022-12-28T07:36:44.388Z,93846.31
2022-12-28T07:39:12.292Z,93845.34
2022-12-28T07:41:40.108Z,93835.34
2022-12-28T07:44:07.947Z,93839.53
2022-12-28T07:46:38.688Z,93842.75
2022-12-28T07:49:07.074Z,93824.38
2022-12-28T07:51:37.903Z,93819.38
2022-12-28T07:54:07.067Z,93816.16
2022-12-28T07:59:03.779Z,93804.38
2022-12-28T08:01:34.228Z,93798.56
2022-12-28T08:04:04.461Z,93800.19
2022-12-28T08:06:35.089Z,93778.56
2022-12-28T08:09:05.739Z,93776.97
2022-12-28T08:11:35.356Z,93733.09
2022-12-28T08:14:03.681Z,93718.13
2022-12-28T08:16:33.556Z,93719.91
2022-12-28T08:19:01.365Z,93719.91
2022-12-28T08:21:31.719Z,93724.72
2022-12-28T08:23:59.971Z,93724.09
2022-12-28T08:26:31.974Z,93708.13
2022-12-28T08:29:01.935Z,93723.13
2022-12-28T08:31:33.258Z,93725.09
2022-12-28T08:34:03.347Z,93708.78
2022-12-28T08:36:31.839Z,93705.72
2022-12-28T08:39:00.706Z,93711.53
2022-12-28T08:41:31.120Z,93782.25
2022-12-28T08:43:59.459Z,93818.22
2022-12-28T08:46:29.192Z,93809.81
2022-12-28T08:48:58.971Z,93822.75
2022-12-28T08:51:31.961Z,93800.63
2022-12-28T08:54:00.467Z,93807.78
2022-12-28T08:56:31.753Z,93794.03
2022-12-28T08:58:59.843Z,93793.22
2022-12-28T09:01:29.633Z,93797.25
2022-12-28T09:04:00.215Z,93806.63
2022-12-28T09:06:29.237Z,93815.00
2022-12-28T09:09:07.195Z,93812.59
2022-12-28T09:11:37.695Z,93816.97
2022-12-28T09:14:07.717Z,93821.44
2022-12-28T09:16:36.280Z,93841.75
2022-12-28T09:19:06.623Z,93852.56
2022-12-28T09:21:36.037Z,93861.75
2022-12-28T09:24:04.458Z,93871.75
2022-12-28T09:26:35.104Z,93878.56
2022-12-28T09:29:07.009Z,93878.56
2022-12-28T09:31:37.124Z,93880.19
2022-12-28T09:36:53.088Z,93866.59
2022-12-28T09:39:24.489Z,93869.34
2022-12-28T09:41:57.457Z,93857.56
2022-12-28T09:44:41.166Z,93844.19
2022-12-28T09:47:18.584Z,93850.16
2022-12-28T09:49:56.413Z,93848.38
2022-12-28T09:52:29.148Z,93816.38
2022-12-28T09:55:01.424Z,93861.75
2022-12-28T09:57:38.794Z,93898.56
2022-12-28T10:00:18.541Z,93907.75
2022-12-28T10:02:50.816Z,93931.97
2022-12-28T10:05:20.680Z,93959.38
2022-12-28T10:07:48.791Z,94047.75
2022-12-28T10:10:19.881Z,94023.81
2022-12-28T10:12:48.494Z,94035.59
2022-12-28T10:15:27.048Z,94042.41
2022-12-28T10:17:55.462Z,94043.19
2022-12-28T10:20:24.055Z,94050.78
2022-12-28T10:22:54.308Z,94071.00
2022-12-28T10:25:26.702Z,94082.47
2022-12-28T10:27:56.067Z,94109.47
2022-12-28T10:30:27.990Z,94106.69
2022-12-28T10:33:02.455Z,94143.88
2022-12-28T10:35:34.430Z,94175.06
2022-12-28T10:38:05.230Z,94191.56
2022-12-28T10:40:36.452Z,94218.75
2022-12-28T10:43:10.860Z,94261.44
2022-12-28T10:45:47.681Z,94301.38
2022-12-28T10:48:19.161Z,94312.38
2022-12-28T10:50:53.969Z,94340.84
2022-12-28T10:53:28.063Z,94344.25
2022-12-28T10:56:07.345Z,94361.09
2022-12-28T10:58:35.755Z,94392.16
2022-12-28T11:01:08.080Z,94403.81
2022-12-28T11:03:37.932Z,94433.28
2022-12-28T11:06:10.708Z,94458.56
2022-12-28T11:08:39.742Z,94471.19
2022-12-28T11:11:08.287Z,94485.09
2022-12-28T11:13:36.525Z,94494.66
2022-12-28T11:16:08.080Z,94505.50
2022-12-28T11:18:38.083Z,94541.66
2022-12-28T11:21:06.430Z,94566.13
2022-12-28T11:23:34.962Z,94556.41
2022-12-28T11:26:02.717Z,94613.91
2022-12-28T11:28:30.543Z,94666.13
2022-12-28T11:30:59.787Z,94692.88
2022-12-28T11:33:36.961Z,94730.81
2022-12-28T11:36:10.095Z,94763.78
2022-12-28T11:38:39.676Z,94790.56
2022-12-28T11:41:08.096Z,94809.22
2022-12-28T11:43:51.398Z,94830.16
2022-12-28T11:46:40.358Z,94841.34
2022-12-28T11:49:31.648Z,94828.53
2022-12-28T11:52:44.389Z,94810.84
2022-12-28T11:55:37.275Z,94799.16
2022-12-28T11:58:51.043Z,94792.50
2022-12-28T12:01:47.678Z,94800.94
2022-12-28T12:04:41.271Z,94802.56
2022-12-28T12:07:38.881Z,94800.78
2022-12-28T12:10:21.587Z,94799.97
2022-12-28T12:12:53.518Z,94811.34
2022-12-28T12:15:26.410Z,94785.06
2022-12-28T12:18:00.883Z,94823.66
2022-12-28T12:20:47.672Z,94822.84
2022-12-28T12:23:27.298Z,94842.50
2022-12-28T12:25:59.178Z,94867.50
2022-12-28T12:28:37.285Z,94880.81
2022-12-28T12:31:10.044Z,94896.06
2022-12-28T12:33:43.902Z,94911.34
2022-12-28T12:36:39.870Z,94914.75
2022-12-28T12:39:28.723Z,94913.78
2022-12-28T12:42:06.571Z,94917.81
2022-12-28T12:44:41.115Z,94938.28
2022-12-28T12:47:54.658Z,94941.53
2022-12-28T12:50:36.256Z,94949.00
2022-12-28T12:53:22.469Z,94954.03
2022-12-28T12:56:03.690Z,94947.22
2022-12-28T12:58:41.478Z,94946.75
2022-12-28T13:01:30.738Z,94944.78
2022-12-28T13:04:07.087Z,94945.13
2022-12-28T13:06:36.108Z,94946.75
2022-12-28T13:09:07.608Z,94937.47
2022-12-28T13:11:38.368Z,94927.91
2022-12-28T13:14:06.923Z,94928.06
2022-12-28T13:16:34.808Z,94924.66
2022-12-28T13:19:04.756Z,94911.97
2022-12-28T13:21:42.744Z,94906.94
2022-12-28T13:24:21.798Z,94876.94
2022-12-28T13:26:50.213Z,94894.44
2022-12-28T13:29:21.123Z,94908.91
2022-12-28T13:31:50.610Z,94899.31
2022-12-28T13:34:22.950Z,94886.00
2022-12-28T13:36:53.772Z,94858.91
2022-12-28T13:39:23.988Z,94858.25
2022-12-28T13:41:53.713Z,94833.72
2022-12-28T13:44:37.584Z,94807.44
2022-12-28T13:47:10.574Z,94809.38
2022-12-28T13:50:01.505Z,94788.28
2022-12-28T13:52:33.233Z,94783.44
2022-12-28T13:55:05.806Z,94757.78
2022-12-28T13:57:46.647Z,94754.88
2022-12-28T14:00:17.927Z,94709.09
2022-12-28T14:02:46.300Z,94690.63
2022-12-28T14:05:21.686Z,94675.38
2022-12-28T14:07:51.202Z,94661.75
2022-12-28T14:10:20.846Z,94645.72
2022-12-28T14:12:49.665Z,94651.41
2022-12-28T14:15:18.865Z,94637.63
2022-12-28T14:17:48.599Z,94629.81
2022-12-28T14:20:17.941Z,94641.81
2022-12-28T14:22:46.362Z,94642.97
2022-12-28T14:25:16.128Z,94640.84
2022-12-28T14:27:46.982Z,94643.63
2022-12-28T14:30:26.232Z,94637.09
2022-12-28T14:32:55.438Z,94638.41
2022-12-28T14:35:27.267Z,94627.88
2022-12-28T14:37:57.502Z,94618.00
2022-12-28T14:40:31.290Z,94635.81
2022-12-28T14:43:00.406Z,94637.63
2022-12-28T14:46:07.507Z,94604.56
2022-12-28T14:48:37.540Z,94655.13
2022-12-28T14:51:25.499Z,94660.31
2022-12-28T14:54:18.523Z,94656.09
2022-12-28T14:56:49.745Z,94672.13
2022-12-28T14:59:21.395Z,94680.56
2022-12-28T15:01:49.800Z,94660.97
2022-12-28T15:04:37.703Z,94682.19
2022-12-28T15:07:09.331Z,94682.19
2022-12-28T15:09:37.553Z,94685.59
2022-12-28T15:12:10.521Z,94690.63
2022-12-28T15:14:38.428Z,94699.06
2022-12-28T15:17:06.533Z,94687.06
2022-12-28T15:19:34.429Z,94711.06
2022-12-28T15:22:02.298Z,94689.47
2022-12-28T15:24:34.242Z,94691.44
2022-12-28T15:27:02.878Z,94680.25
2022-12-28T15:32:18.500Z,94695.47
2022-12-28T15:34:46.271Z,94707.50
2022-12-28T15:37:14.079Z,94714.31
2022-12-28T15:39:43.240Z,94732.78
2022-12-28T15:42:11.180Z,94764.94
2022-12-28T15:44:38.985Z,94787.47
2022-12-28T15:47:07.234Z,94814.41
2022-12-28T15:49:35.292Z,94846.22
2022-12-28T15:52:03.143Z,94869.13
2022-12-28T15:54:30.885Z,94882.78
2022-12-28T15:56:59.980Z,94899.50
2022-12-28T15:59:28.160Z,94913.59
2022-12-28T16:01:56.087Z,94928.88
2022-12-28T16:04:24.137Z,94939.91
2022-12-28T16:06:51.926Z,94972.91
2022-12-28T16:09:19.838Z,94972.75
2022-12-28T16:11:53.084Z,94980.56
2022-12-28T16:14:24.264Z,95006.38
2022-12-28T16:16:52.496Z,95014.00
2022-12-28T16:19:20.565Z,95024.06
2022-12-28T16:21:51.042Z,95029.94
2022-12-28T16:24:19.361Z,95046.19
2022-12-28T16:26:47.407Z,95038.22
2022-12-28T16:29:15.619Z,95052.69
2022-12-28T16:31:44.880Z,95048.44
2022-12-28T16:34:14.701Z,95067.94
2022-12-28T16:36:43.121Z,95061.13
2022-12-28T16:39:14.530Z,95069.59
2022-12-28T16:41:43.007Z,95071.53
2022-12-28T16:44:14.668Z,95074.47
2022-12-28T16:46:44.125Z,95087.31
2022-12-28T16:49:12.050Z,95084.72
2022-12-28T16:51:41.226Z,95105.38
2022-12-28T16:54:09.506Z,95105.03
2022-12-28T16:56:37.287Z,95105.03
2022-12-28T16:59:05.076Z,95104.22
2022-12-28T17:01:33.278Z,95110.06
2022-12-28T17:04:04.483Z,95113.31
2022-12-28T17:06:32.469Z,95120.97
2022-12-28T17:09:01.901Z,95140.47
2022-12-28T17:11:29.992Z,95163.25
2022-12-28T17:14:01.709Z,95167.47
2022-12-28T17:16:29.623Z,95164.22
2022-12-28T17:18:57.385Z,95162.28
2022-12-28T17:21:26.601Z,95161.44
2022-12-28T17:23:55.818Z,95164.06
2022-12-28T17:26:23.696Z,95153.81
2022-12-28T17:28:51.838Z,95165.84
2022-12-28T17:31:22.363Z,95156.41
2022-12-28T17:33:53.773Z,95211.41
2022-12-28T17:36:22.551Z,95235.16
2022-12-28T17:38:51.983Z,95256.97
2022-12-28T17:41:22.428Z,95253.72
2022-12-28T17:43:51.786Z,95252.56
2022-12-28T17:46:19.937Z,95253.72
2022-12-28T17:48:48.035Z,95250.47
2022-12-28T17:51:15.979Z,95255.16
2022-12-28T17:53:43.862Z,95278.28
2022-12-28T17:56:14.746Z,95320.28
2022-12-28T17:58:44.409Z,95322.91
2022-12-28T18:01:13.743Z,95336.41
2022-12-28T18:03:41.935Z,95332.81
2022-12-28T18:06:09.823Z,95338.03
2022-12-28T18:08:37.590Z,95333.81
2022-12-28T18:11:08.576Z,95340.81
2022-12-28T18:13:37.833Z,95362.63
2022-12-28T18:16:07.477Z,95366.69
2022-12-28T18:18:35.290Z,95381.19
2022-12-28T18:21:05.588Z,95383.63
2022-12-28T18:23:34.422Z,95402.50
2022-12-28T18:26:03.279Z,95424.38
2022-12-28T18:28:31.235Z,95465.41
2022-12-28T18:31:02.424Z,95527.19
2022-12-28T18:33:30.875Z,95570.41
2022-12-28T18:35:58.923Z,95593.22
2022-12-28T18:38:26.793Z,95636.63
2022-12-28T18:40:57.216Z,95645.75
2022-12-28T18:43:25.849Z,95681.16
2022-12-28T18:45:54.054Z,95716.88
2022-12-28T18:48:23.416Z,95720.47
2022-12-28T18:50:55.944Z,95737.13
2022-12-28T18:53:24.697Z,95779.56
2022-12-28T18:55:58.066Z,95787.41
2022-12-28T18:58:25.939Z,95824.47
2022-12-28T19:00:53.720Z,95827.53
2022-12-28T19:03:23.224Z,95832.78
2022-12-28T19:06:02.307Z,95841.44
2022-12-28T19:08:31.304Z,95876.25
2022-12-28T19:10:59.107Z,95877.06
2022-12-28T19:13:27.071Z,95886.53
2022-12-28T19:15:54.885Z,95914.63
2022-12-28T19:18:24.266Z,95914.47
2022-12-28T19:20:56.756Z,95901.72
2022-12-28T19:23:24.547Z,95905.97
2022-12-28T19:25:54.601Z,95931.47
2022-12-28T19:28:22.410Z,95946.66
2022-12-28T19:30:51.561Z,95946.81
2022-12-28T19:33:19.515Z,95934.06
2022-12-28T19:35:48.640Z,95949.44
2022-12-28T19:38:16.423Z,95970.53
2022-12-28T19:40:44.164Z,95948.44
2022-12-28T19:43:12.947Z,95953.66
2022-12-28T19:45:40.786Z,95923.94
2022-12-28T19:48:08.919Z,95926.56
2022-12-28T19:50:36.899Z,95923.13
2022-12-28T19:53:06.124Z,95905.31
2022-12-28T19:55:34.664Z,95887.91
2022-12-28T19:58:02.508Z,95946.16
2022-12-28T20:00:30.345Z,95935.03
2022-12-28T20:02:58.462Z,95937.34
2022-12-28T20:05:27.167Z,95928.03
2022-12-28T20:07:54.920Z,95952.69
2022-12-28T20:10:24.464Z,95954.50
2022-12-28T20:12:52.238Z,95939.28
2022-12-28T20:15:20.008Z,95942.56
2022-12-28T20:17:47.756Z,95956.00
2022-12-28T20:20:17.334Z,95965.31
2022-12-28T20:22:46.650Z,95967.78
2022-12-28T20:25:14.596Z,95973.00
2022-12-28T20:27:43.720Z,95976.44
2022-12-28T20:30:12.480Z,95979.84
2022-12-28T20:32:44.711Z,95984.09
2022-12-28T20:35:13.223Z,96021.53
2022-12-28T20:37:41.030Z,96029.88
2022-12-28T20:40:09.767Z,96025.63
2022-12-28T20:42:54.937Z,96011.22
2022-12-28T20:45:24.496Z,96011.22
2022-12-28T20:47:53.891Z,96022.34
2022-12-28T20:50:21.672Z,96028.22
2022-12-28T20:52:49.464Z,96031.66
2022-12-28T20:55:17.311Z,96068.94
2022-12-28T20:57:45.383Z,96071.72
2022-12-28T21:00:14.436Z,96057.97
2022-12-28T21:02:43.575Z,96063.88
2022-12-28T21:05:11.845Z,96060.44
2022-12-28T21:07:39.679Z,96089.25
2022-12-28T21:10:09.548Z,96085.97
2022-12-28T21:12:37.313Z,96095.13
2022-12-28T21:15:05.786Z,96135.88
2022-12-28T21:17:35.550Z,96111.31
2022-12-28T21:20:05.648Z,96120.81
2022-12-28T21:22:33.468Z,96115.06
2022-12-28T21:25:01.304Z,96131.91
2022-12-28T21:27:29.671Z,96146.31
2022-12-28T21:29:57.458Z,96156.47
2022-12-28T21:32:25.189Z,96167.59
2022-12-28T21:34:53.093Z,96152.88
2022-12-28T21:37:37.099Z,96188.03
2022-12-28T21:40:08.897Z,96187.75
2022-12-28T21:42:37.443Z,96193.81
2022-12-28T21:45:06.118Z,96193.66
2022-12-28T21:47:35.532Z,96207.38
2022-12-28T21:50:04.178Z,96216.56
2022-12-28T21:52:34.581Z,96210.81
2022-12-28T21:55:23.253Z,96223.56
2022-12-28T21:57:51.692Z,96232.75
2022-12-28T22:00:38.023Z,96225.88
2022-12-28T22:03:21.150Z,96253.38
2022-12-28T22:06:06.524Z,96261.06
2022-12-28T22:08:53.508Z,96226.03
2022-12-28T22:11:38.858Z,96226.72
2022-12-28T22:14:07.793Z,96236.66
2022-12-28T22:16:36.873Z,96251.72
2022-12-28T22:19:05.452Z,96260.22
2022-12-28T22:21:33.296Z,96261.22
2022-12-28T22:24:02.519Z,96276.94
2022-12-28T22:26:30.326Z,96260.06
2022-12-28T22:28:58.013Z,96272.84
2022-12-28T22:31:25.769Z,96283.16
2022-12-28T22:33:57.569Z,96293.16
2022-12-28T22:36:27.186Z,96301.00
2022-12-28T22:38:55.434Z,96306.94
2022-12-28T22:41:24.745Z,96308.56
2022-12-28T22:43:53.505Z,96327.38
2022-12-28T22:46:22.300Z,96342.63
2022-12-28T22:48:50.342Z,96331.50
2022-12-28T22:51:18.199Z,96335.91
2022-12-28T22:53:46.082Z,96345.09
2022-12-28T22:56:19.648Z,96360.63
2022-12-28T22:58:49.294Z,96379.16
2022-12-28T23:01:19.491Z,96373.25
2022-12-28T23:03:48.922Z,96370.63
2022-12-28T23:06:19.493Z,96385.06
2022-12-28T23:08:49.460Z,96386.03
2022-12-28T23:11:37.508Z,96399.47
2022-12-28T23:14:26.282Z,96396.19
2022-12-28T23:16:54.951Z,96390.13
2022-12-28T23:19:40.752Z,96386.84
2022-12-28T23:22:26.643Z,96420.13
2022-12-28T23:25:11.650Z,96425.38
2022-12-28T23:30:29.552Z,96394.53
2022-12-28T23:32:57.482Z,96385.19
2022-12-28T23:35:26.950Z,96378.47
2022-12-28T23:37:56.119Z,96394.53
2022-12-28T23:40:24.705Z,96386.84
2022-12-28T23:42:54.066Z,96381.09
2022-12-28T23:45:23.068Z,96388.66
2022-12-28T23:47:54.317Z,96375.50
2022-12-28T23:50:22.162Z,96401.41
2022-12-28T23:52:50.179Z,96393.88
2022-12-28T23:55:18.521Z,96403.06
2022-12-28T23:57:46.278Z,96409.13
